Huvudsida
METAR-TAF:

METAR-TAF

Flygplatser :

Ronneby Airport

Ronneby, Sverige

latitud: 56-16N, longitud: 015-17E, höjd: 58 m

Aktuellt väderrapport

Denna rapport gjordes för 37 minuter sedan, klockan 07:20 UTC
Vind 5 kt från väst/nordväst, varierande mellan väst och nord/nordväst
Temperatur 3°C
Fuktighet 87%
Tryck 1021 hPa
Sikt 10 km eller mer
Inga moln under 1 500 m eller inga cumulonimbus

METAR: ESDF 220720Z 30005KT 270V330 CAVOK 03/01 Q1021

Tid: 08:57 (07:57 UTC)

Väderprognos

Denna rapport gjordes för 2 timmar och 27 minuter sedan, klockan 05:30 UTC
Prognos gäller från 22 kl. 06 UTC till 22 kl. 15 UTC
Vind 8 kt från nordväst
Sikt 10 km eller mer
Inga moln under 1 500 m eller inga cumulonimbus

TAF: ESDF 220530Z 2206/2215 32008KT CAVOK RMK MIL

Aktuella väderrapporter och prognoser från 4000 flygplatser (METAR- och TAF-rapporter).

De tillgängliga stationerna syns som gula och röda prickar på kartan.

För musen över prickarna för att se namnen på stationerna.

Klicka sedan för att få väderrapporter och prognoser.

För att ändra kartan: Klicka på de gröna knapparna med ett svart kors på för att zooma in; den gröna knappen med ett streck på för att zooma ut; eller på de gröna pilarna för angränsande kartor.


METAR-TAF: